Time;durP1;ratioP1;P1;durP2;ratioP2;P2;SDS_P1;SDS_P2;PMS_P1;PMS_P2;Temp;Humidity;BMP_temperature;BMP_pressure;BME280_temperature;BME280_humidity;BME280_pressure;Samples;Min_cycle;Max_cycle;Signal;HPM_P1;HPM_P2
2021/01/03 00:00:35;;;;;;;40.97;21.63;;;;;;;;;;5023703;28;20202;-70
2021/01/03 00:03:00;;;;;;;38.83;21.27;;;;;;;;;;5028475;28;20186;-70
2021/01/03 00:05:26;;;;;;;40.37;20.50;;;;;;;;;;5027747;28;20166;-70
2021/01/03 00:07:52;;;;;;;43.47;21.63;;;;;;;;;;5025644;28;20234;-70
2021/01/03 00:10:17;;;;;;;36.63;20.07;;;;;;;;;;5027537;28;20187;-70
2021/01/03 00:12:42;;;;;;;39.87;19.57;;;;;;;;;;5028560;28;20178;-70
2021/01/03 00:15:10;;;;;;;38.50;19.93;;;;;;;;;;5029863;28;20189;-70
2021/01/03 00:17:35;;;;;;;34.60;18.30;;;;;;;;;;5029334;28;20206;-70
2021/01/03 00:20:00;;;;;;;36.07;17.73;;;;;;;;;;5028951;28;20618;-70
2021/01/03 00:22:26;;;;;;;35.77;19.07;;;;;;;;;;5023772;28;20186;-70
2021/01/03 00:24:51;;;;;;;39.07;19.50;;;;;;;;;;5028634;28;20562;-70
2021/01/03 00:27:16;;;;;;;36.08;18.63;;;;;;;;;;5031822;28;20205;-70
2021/01/03 00:29:41;;;;;;;37.23;19.60;;;;;;;;;;5035192;28;20658;-70
2021/01/03 00:32:07;;;;;;;39.37;18.57;;;;;;;;;;5024745;28;20547;-70
2021/01/03 00:34:32;;;;;;;43.73;19.87;;;;;;;;;;5030262;28;20174;-70
2021/01/03 00:36:57;;;;;;;42.70;22.57;;;;;;;;;;5028812;28;20256;-70
2021/01/03 00:39:22;;;;;;;38.93;20.57;;;;;;;;;;5023093;28;20686;-70
2021/01/03 00:41:49;;;;;;;37.27;18.80;;;;;;;;;;5031353;28;20269;-70
2021/01/03 00:44:14;;;;;;;42.33;19.93;;;;;;;;;;5030327;28;20672;-70
2021/01/03 00:46:39;;;;;;;40.70;20.33;;;;;;;;;;5028168;28;20233;-70
2021/01/03 00:49:04;;;;;;;40.75;20.20;;;;;;;;;;5012179;28;20202;-70
2021/01/03 00:51:29;;;;;;;38.87;21.07;;;;;;;;;;5027504;28;20186;-70
2021/01/03 00:53:55;;;;;;;39.73;19.00;;;;;;;;;;5027840;28;20193;-70
2021/01/03 00:56:22;;;;;;;38.63;20.30;;;;;;;;;;5029732;28;20241;-70
2021/01/03 00:58:47;;;;;;;41.43;21.23;;;;;;;;;;5025347;28;20186;-70
2021/01/03 01:01:12;;;;;;;38.67;19.93;;;;;;;;;;5025972;28;20201;-70
2021/01/03 01:03:37;;;;;;;46.07;21.30;;;;;;;;;;5025234;28;20223;-70
2021/01/03 01:06:02;;;;;;;45.10;21.73;;;;;;;;;;5014562;28;20869;-70
2021/01/03 01:08:28;;;;;;;45.93;21.90;;;;;;;;;;5024124;28;20212;-70
2021/01/03 01:10:53;;;;;;;47.17;22.63;;;;;;;;;;5029688;28;20205;-70
2021/01/03 01:13:18;;;;;;;37.97;20.27;;;;;;;;;;5031839;28;20210;-70
2021/01/03 01:15:43;;;;;;;47.23;23.03;;;;;;;;;;5012595;28;20292;-70
2021/01/03 01:18:08;;;;;;;42.67;21.17;;;;;;;;;;5027348;28;20182;-70
2021/01/03 01:20:34;;;;;;;43.50;20.80;;;;;;;;;;5025372;28;20209;-70
2021/01/03 01:22:59;;;;;;;43.70;21.33;;;;;;;;;;5026624;28;20174;-70
2021/01/03 01:25:25;;;;;;;45.23;22.50;;;;;;;;;;5027558;28;20862;-70
2021/01/03 01:27:51;;;;;;;45.53;21.00;;;;;;;;;;5030223;28;20186;-70
2021/01/03 01:30:17;;;;;;;39.73;21.73;;;;;;;;;;5026405;28;20183;-70
2021/01/03 01:32:42;;;;;;;47.67;21.83;;;;;;;;;;5026214;28;20193;-70
2021/01/03 01:35:09;;;;;;;39.80;20.40;;;;;;;;;;5027037;28;20682;-70
2021/01/03 01:37:34;;;;;;;45.83;21.70;;;;;;;;;;5033584;28;20201;-70
2021/01/03 01:40:00;;;;;;;44.83;21.67;;;;;;;;;;5025421;28;20194;-70
2021/01/03 01:42:25;;;;;;;44.90;21.07;;;;;;;;;;5028697;28;20186;-70
2021/01/03 01:44:50;;;;;;;46.17;21.23;;;;;;;;;;5011628;28;20261;-70
2021/01/03 01:47:18;;;;;;;47.90;22.27;;;;;;;;;;5027100;28;20204;-70
2021/01/03 01:49:44;;;;;;;46.83;22.53;;;;;;;;;;5030358;28;20690;-70
2021/01/03 01:52:11;;;;;;;43.57;21.20;;;;;;;;;;5029069;28;20202;-70
2021/01/03 01:54:38;;;;;;;54.50;23.10;;;;;;;;;;5013935;28;20600;-70
2021/01/03 01:57:10;;;;;;;42.97;22.63;;;;;;;;;;5030752;28;20210;-71
2021/01/03 01:59:38;;;;;;;47.50;22.13;;;;;;;;;;5035213;28;20189;-70
2021/01/03 02:02:15;;;;;;;51.77;23.10;;;;;;;;;;5027726;28;20181;-70
2021/01/03 02:04:53;;;;;;;41.90;21.20;;;;;;;;;;5027009;28;20182;-70
2021/01/03 02:07:22;;;;;;;41.20;20.07;;;;;;;;;;5013216;28;20204;-70
2021/01/03 02:09:56;;;;;;;44.47;21.20;;;;;;;;;;5028607;28;20182;-70
2021/01/03 02:12:25;;;;;;;43.90;20.17;;;;;;;;;;5027058;28;20673;-70
2021/01/03 02:14:50;;;;;;;44.50;20.10;;;;;;;;;;5006810;28;20285;-70
2021/01/03 02:17:15;;;;;;;39.40;21.30;;;;;;;;;;5027851;28;20706;-70
2021/01/03 02:19:40;;;;;;;44.47;21.87;;;;;;;;;;5025301;28;20586;-70
2021/01/03 02:22:10;;;;;;;38.60;20.53;;;;;;;;;;5028785;28;20186;-70
2021/01/03 02:24:38;;;;;;;41.10;19.77;;;;;;;;;;5026513;28;20185;-70
2021/01/03 02:27:07;;;;;;;41.10;19.93;;;;;;;;;;5026992;28;20233;-70
2021/01/03 02:29:32;;;;;;;42.83;20.60;;;;;;;;;;5031389;28;20766;-70
2021/01/03 02:32:00;;;;;;;36.27;19.67;;;;;;;;;;5026785;28;20269;-70
2021/01/03 02:34:26;;;;;;;39.00;19.83;;;;;;;;;;5026077;28;20443;-70
2021/01/03 02:36:55;;;;;;;44.23;22.00;;;;;;;;;;5010373;28;20656;-70
2021/01/03 02:39:24;;;;;;;51.10;21.00;;;;;;;;;;5021332;28;20194;-70
2021/01/03 02:41:53;;;;;;;40.43;21.27;;;;;;;;;;5029569;28;20269;-70
2021/01/03 02:44:18;;;;;;;39.07;20.23;;;;;;;;;;5026937;28;20171;-70
2021/01/03 02:46:44;;;;;;;43.90;21.23;;;;;;;;;;5025648;28;20229;-70
2021/01/03 02:49:09;;;;;;;48.40;22.03;;;;;;;;;;5006641;28;20190;-70
2021/01/03 02:51:36;;;;;;;41.43;20.53;;;;;;;;;;5032373;28;20427;-70
2021/01/03 02:54:02;;;;;;;48.97;22.57;;;;;;;;;;5040626;28;20186;-70
2021/01/03 02:56:27;;;;;;;50.23;21.63;;;;;;;;;;5032979;28;20266;-70
2021/01/03 02:58:52;;;;;;;51.53;22.73;;;;;;;;;;5029583;28;20676;-70
2021/01/03 03:01:17;;;;;;;56.30;24.73;;;;;;;;;;5031052;28;20178;-70
2021/01/03 03:03:43;;;;;;;49.37;22.50;;;;;;;;;;5030125;28;20690;-70
2021/01/03 03:06:08;;;;;;;54.70;23.83;;;;;;;;;;5030795;28;20199;-70
2021/01/03 03:08:33;;;;;;;50.07;22.80;;;;;;;;;;5031237;28;20217;-70
2021/01/03 03:10:58;;;;;;;50.10;24.73;;;;;;;;;;5032665;28;20182;-70
2021/01/03 03:13:23;;;;;;;49.07;22.27;;;;;;;;;;5030981;28;20191;-70
2021/01/03 03:15:49;;;;;;;52.73;23.53;;;;;;;;;;5031458;28;20208;-70
2021/01/03 03:18:14;;;;;;;56.33;23.10;;;;;;;;;;5031019;28;20197;-70
2021/01/03 03:20:39;;;;;;;48.40;22.43;;;;;;;;;;5033034;28;20233;-70
2021/01/03 03:23:04;;;;;;;47.50;22.23;;;;;;;;;;5032800;28;20606;-70
2021/01/03 03:25:29;;;;;;;58.03;23.67;;;;;;;;;;5028403;28;20182;-70
2021/01/03 03:27:55;;;;;;;48.37;22.80;;;;;;;;;;5033821;28;20257;-70
2021/01/03 03:30:21;;;;;;;48.67;23.03;;;;;;;;;;5031679;28;20186;-70
2021/01/03 03:32:51;;;;;;;49.67;21.30;;;;;;;;;;5029439;28;20189;-70
2021/01/03 03:35:17;;;;;;;50.30;23.00;;;;;;;;;;5030478;28;20174;-70
2021/01/03 03:37:42;;;;;;;50.13;23.67;;;;;;;;;;5032715;28;20231;-70
2021/01/03 03:40:08;;;;;;;49.73;23.40;;;;;;;;;;5032799;28;20571;-70
2021/01/03 03:42:33;;;;;;;55.10;22.67;;;;;;;;;;5031433;28;20189;-70
2021/01/03 03:44:58;;;;;;;54.20;23.83;;;;;;;;;;5029302;28;20179;-70
2021/01/03 03:47:27;;;;;;;46.90;22.40;;;;;;;;;;5031482;28;20645;-70
2021/01/03 03:49:52;;;;;;;55.87;23.17;;;;;;;;;;5031101;28;20229;-70
2021/01/03 03:52:17;;;;;;;48.50;22.60;;;;;;;;;;5031382;28;20186;-71
2021/01/03 03:54:42;;;;;;;56.03;24.70;;;;;;;;;;5030306;28;20197;-70
2021/01/03 03:57:08;;;;;;;51.83;22.47;;;;;;;;;;5030394;28;20214;-70
2021/01/03 03:59:33;;;;;;;57.87;24.93;;;;;;;;;;5040955;28;20193;-70
2021/01/03 04:01:58;;;;;;;58.37;25.07;;;;;;;;;;5025134;28;20191;-70
2021/01/03 04:04:24;;;;;;;57.40;25.57;;;;;;;;;;5032694;28;20174;-70
2021/01/03 04:06:50;;;;;;;56.17;22.27;;;;;;;;;;5029594;28;20206;-70
2021/01/03 04:09:15;;;;;;;58.47;23.80;;;;;;;;;;5027363;28;20186;-70
2021/01/03 04:11:42;;;;;;;55.63;23.33;;;;;;;;;;5031974;28;20617;-71
2021/01/03 04:14:08;;;;;;;59.87;24.77;;;;;;;;;;5032171;28;20198;-70
2021/01/03 04:16:33;;;;;;;60.10;24.87;;;;;;;;;;5026465;28;20281;-70
2021/01/03 04:18:58;;;;;;;49.77;23.07;;;;;;;;;;5032922;28;20265;-70
2021/01/03 04:21:23;;;;;;;54.27;25.93;;;;;;;;;;5030403;28;20433;-71
2021/01/03 04:23:49;;;;;;;57.10;24.17;;;;;;;;;;5014177;28;20536;-70
2021/01/03 04:26:15;;;;;;;59.23;25.10;;;;;;;;;;5033762;28;20198;-70
2021/01/03 04:28:40;;;;;;;60.90;25.13;;;;;;;;;;5033406;28;20610;-70
2021/01/03 04:31:05;;;;;;;66.03;26.40;;;;;;;;;;5011348;28;20495;-70
2021/01/03 04:33:31;;;;;;;65.63;27.00;;;;;;;;;;5024506;28;20178;-70
2021/01/03 04:35:56;;;;;;;70.50;26.37;;;;;;;;;;5028597;28;20686;-70
2021/01/03 04:38:21;;;;;;;63.30;27.67;;;;;;;;;;5025749;28;20269;-70
2021/01/03 04:40:46;;;;;;;63.50;25.87;;;;;;;;;;5005834;28;20249;-70
2021/01/03 04:43:14;;;;;;;62.70;26.33;;;;;;;;;;5023027;28;20198;-70
2021/01/03 04:45:40;;;;;;;57.37;25.73;;;;;;;;;;5029158;28;20205;-70
2021/01/03 04:48:07;;;;;;;57.37;27.63;;;;;;;;;;5038550;28;20190;-70
2021/01/03 04:50:38;;;;;;;54.87;27.43;;;;;;;;;;5010770;28;20186;-70
2021/01/03 04:53:10;;;;;;;58.37;25.00;;;;;;;;;;5029837;28;20182;-70
2021/01/03 04:55:37;;;;;;;63.20;25.80;;;;;;;;;;5030360;28;20244;-70
2021/01/03 04:58:14;;;;;;;63.93;24.80;;;;;;;;;;5030438;28;20186;-70
2021/01/03 05:01:08;;;;;;;61.07;25.43;;;;;;;;;;5028466;28;20212;-70
2021/01/03 05:03:37;;;;;;;50.17;22.17;;;;;;;;;;4995193;28;20186;-70
2021/01/03 05:06:05;;;;;;;65.53;24.43;;;;;;;;;;5026484;28;20198;-70
2021/01/03 05:08:33;;;;;;;56.30;22.93;;;;;;;;;;5030984;28;20585;-70
2021/01/03 05:11:05;;;;;;;55.53;21.30;;;;;;;;;;5031121;28;20182;-70
2021/01/03 05:13:30;;;;;;;51.70;22.40;;;;;;;;;;5031184;28;20182;-70
2021/01/03 05:15:55;;;;;;;53.47;21.98;;;;;;;;;;5035358;28;20321;-70
2021/01/03 05:18:21;;;;;;;54.70;22.50;;;;;;;;;;5026934;28;20189;-70
2021/01/03 05:20:54;;;;;;;56.60;22.90;;;;;;;;;;5023374;28;20209;-70
2021/01/03 05:23:20;;;;;;;47.53;22.63;;;;;;;;;;5029002;28;20178;-70
2021/01/03 05:25:46;;;;;;;52.77;22.47;;;;;;;;;;5028826;28;20210;-70
2021/01/03 05:28:13;;;;;;;53.27;21.13;;;;;;;;;;5030066;28;20190;-70
2021/01/03 05:30:38;;;;;;;52.00;22.53;;;;;;;;;;5027374;28;20204;-70
2021/01/03 05:33:08;;;;;;;48.97;21.37;;;;;;;;;;5027689;28;20696;-70
2021/01/03 05:35:38;;;;;;;59.60;24.23;;;;;;;;;;5025774;28;20678;-70
2021/01/03 05:38:04;;;;;;;51.80;21.53;;;;;;;;;;5026488;28;20185;-70
2021/01/03 05:40:39;;;;;;;48.97;20.50;;;;;;;;;;5021271;28;20202;-70
2021/01/03 05:43:21;;;;;;;52.87;23.60;;;;;;;;;;5029376;28;20658;-70
2021/01/03 05:46:05;;;;;;;45.20;21.40;;;;;;;;;;5010029;28;20206;-70
2021/01/03 05:48:35;;;;;;;43.63;19.20;;;;;;;;;;5025581;28;20177;-70
2021/01/03 05:51:00;;;;;;;38.73;19.50;;;;;;;;;;5017562;28;20261;-70
2021/01/03 05:53:27;;;;;;;47.27;23.03;;;;;;;;;;5021014;28;20740;-70
2021/01/03 05:55:58;;;;;;;42.50;20.40;;;;;;;;;;5026194;28;20197;-70
2021/01/03 05:58:37;;;;;;;47.60;21.03;;;;;;;;;;5025535;28;20192;-70
2021/01/03 06:01:19;;;;;;;42.37;22.10;;;;;;;;;;5027498;28;20256;-70
2021/01/03 06:03:57;;;;;;;44.30;21.57;;;;;;;;;;5039396;28;20174;-70
2021/01/03 06:06:26;;;;;;;41.87;19.63;;;;;;;;;;5025981;28;20212;-71
2021/01/03 06:08:57;;;;;;;41.47;20.17;;;;;;;;;;5028735;28;20178;-70
2021/01/03 06:11:22;;;;;;;42.73;21.03;;;;;;;;;;5026562;28;20182;-70
2021/01/03 06:13:49;;;;;;;42.17;19.80;;;;;;;;;;5030146;28;20228;-70
2021/01/03 06:16:16;;;;;;;48.70;23.07;;;;;;;;;;5028195;28;20679;-70
2021/01/03 06:18:43;;;;;;;52.10;23.03;;;;;;;;;;5027727;28;20188;-70
2021/01/03 06:21:15;;;;;;;49.83;21.93;;;;;;;;;;5027154;28;20289;-70
2021/01/03 06:23:45;;;;;;;47.37;21.33;;;;;;;;;;5026467;28;20221;-71
2021/01/03 06:26:17;;;;;;;41.40;22.20;;;;;;;;;;5029349;28;20198;-70
2021/01/03 06:28:53;;;;;;;48.20;21.17;;;;;;;;;;5034655;28;20204;-70
2021/01/03 06:31:37;;;;;;;49.73;23.00;;;;;;;;;;5026842;28;20592;-70
2021/01/03 06:34:15;;;;;;;49.80;22.40;;;;;;;;;;5033966;28;20221;-70
2021/01/03 06:36:40;;;;;;;58.70;25.20;;;;;;;;;;5031866;28;20264;-70
2021/01/03 06:39:19;;;;;;;57.50;25.33;;;;;;;;;;5032700;28;20190;-70
2021/01/03 06:41:46;;;;;;;48.30;22.23;;;;;;;;;;5031370;28;20651;-70
2021/01/03 06:44:35;;;;;;;57.10;24.97;;;;;;;;;;5016659;28;20702;-70
2021/01/03 06:47:22;;;;;;;54.97;23.60;;;;;;;;;;5031642;28;20301;-70
2021/01/03 06:49:55;;;;;;;53.97;24.63;;;;;;;;;;5030777;28;20192;-70
2021/01/03 06:52:38;;;;;;;56.93;24.67;;;;;;;;;;5031800;28;20190;-70
2021/01/03 06:55:29;;;;;;;60.60;25.37;;;;;;;;;;5035218;28;20546;-70
2021/01/03 06:58:03;;;;;;;62.37;25.23;;;;;;;;;;4984278;28;20197;-70
2021/01/03 07:00:42;;;;;;;69.20;26.77;;;;;;;;;;5032755;28;20681;-70
2021/01/03 07:03:16;;;;;;;51.17;23.53;;;;;;;;;;5030259;28;20261;-70
2021/01/03 07:05:48;;;;;;;57.70;26.07;;;;;;;;;;5029316;28;20226;-70
2021/01/03 07:08:15;;;;;;;62.33;26.13;;;;;;;;;;5029500;28;20217;-70
2021/01/03 07:10:41;;;;;;;57.67;26.70;;;;;;;;;;5032350;28;20607;-70
2021/01/03 07:13:27;;;;;;;63.20;28.57;;;;;;;;;;5034439;28;20178;-70
2021/01/03 07:15:53;;;;;;;67.70;27.43;;;;;;;;;;5030238;28;20260;-70
2021/01/03 07:18:22;;;;;;;55.80;26.13;;;;;;;;;;5016153;28;20182;-70
2021/01/03 07:20:47;;;;;;;60.13;26.63;;;;;;;;;;5028405;28;20212;-70
2021/01/03 07:23:14;;;;;;;60.22;26.35;;;;;;;;;;5033894;28;20170;-70
2021/01/03 07:25:45;;;;;;;71.30;27.67;;;;;;;;;;5030629;28;20566;-70
2021/01/03 07:28:15;;;;;;;62.10;26.97;;;;;;;;;;5032386;28;20210;-70
2021/01/03 07:31:13;;;;;;;60.33;27.77;;;;;;;;;;5031965;28;20212;-70
2021/01/03 07:33:38;;;;;;;61.97;26.47;;;;;;;;;;4995768;28;20186;-70
2021/01/03 07:36:25;;;;;;;64.40;26.48;;;;;;;;;;5030639;28;20202;-70
2021/01/03 07:39:03;;;;;;;57.27;25.80;;;;;;;;;;5009217;28;20183;-70
2021/01/03 07:41:29;;;;;;;56.47;25.63;;;;;;;;;;5029825;28;20181;-70
2021/01/03 07:43:54;;;;;;;61.13;29.03;;;;;;;;;;5032619;28;20178;-70
2021/01/03 07:46:38;;;;;;;55.00;26.08;;;;;;;;;;5012556;28;20210;-70
2021/01/03 07:49:22;;;;;;;52.17;24.33;;;;;;;;;;5032689;28;20713;-70
2021/01/03 07:51:47;;;;;;;53.33;23.70;;;;;;;;;;5031097;28;20178;-70
2021/01/03 07:54:12;;;;;;;55.73;25.60;;;;;;;;;;5032802;28;20194;-70
2021/01/03 07:56:37;;;;;;;53.47;24.10;;;;;;;;;;5030774;28;20230;-70
2021/01/03 07:59:02;;;;;;;52.47;24.77;;;;;;;;;;5033157;28;20181;-70
2021/01/03 08:01:37;;;;;;;55.30;24.07;;;;;;;;;;5028842;28;20569;-70
2021/01/03 08:04:09;;;;;;;51.70;23.03;;;;;;;;;;5030723;28;20186;-70
2021/01/03 08:06:34;;;;;;;45.37;22.70;;;;;;;;;;5031123;28;20201;-70
2021/01/03 08:09:00;;;;;;;52.37;24.47;;;;;;;;;;5030765;28;20185;-70
2021/01/03 08:11:28;;;;;;;47.27;22.77;;;;;;;;;;5031087;28;20717;-71
2021/01/03 08:14:01;;;;;;;50.73;24.17;;;;;;;;;;5030534;28;20202;-70
2021/01/03 08:16:27;;;;;;;46.47;23.03;;;;;;;;;;5014656;28;20206;-70
2021/01/03 08:19:03;;;;;;;53.20;25.17;;;;;;;;;;5030142;28;20269;-70
2021/01/03 08:21:30;;;;;;;45.67;22.93;;;;;;;;;;5027953;28;20208;-70
2021/01/03 08:24:01;;;;;;;54.27;25.20;;;;;;;;;;5031258;28;20292;-70
2021/01/03 08:26:27;;;;;;;46.23;22.00;;;;;;;;;;5029262;28;20198;-70
2021/01/03 08:28:55;;;;;;;50.00;25.77;;;;;;;;;;5030972;28;20177;-70
2021/01/03 08:31:21;;;;;;;52.83;23.17;;;;;;;;;;5027066;28;20182;-70
2021/01/03 08:33:48;;;;;;;49.60;24.20;;;;;;;;;;5030737;28;20216;-70
2021/01/03 08:36:22;;;;;;;42.73;23.60;;;;;;;;;;5011945;28;20198;-70
2021/01/03 08:38:47;;;;;;;48.70;24.10;;;;;;;;;;5011972;28;20292;-70
2021/01/03 08:41:15;;;;;;;51.00;23.90;;;;;;;;;;5007857;28;20321;-70
2021/01/03 08:43:42;;;;;;;48.37;23.40;;;;;;;;;;5033674;28;20226;-70
2021/01/03 08:46:08;;;;;;;49.10;23.73;;;;;;;;;;5027238;28;20641;-70
2021/01/03 08:48:33;;;;;;;50.47;24.87;;;;;;;;;;5030237;28;20207;-70
2021/01/03 08:51:07;;;;;;;55.50;24.37;;;;;;;;;;5028785;28;20182;-70
2021/01/03 08:53:32;;;;;;;55.00;26.73;;;;;;;;;;5030868;28;20313;-70
2021/01/03 08:56:07;;;;;;;50.00;24.20;;;;;;;;;;5021270;28;20289;-71
2021/01/03 08:58:33;;;;;;;53.77;26.63;;;;;;;;;;5034373;28;20169;-70
2021/01/03 09:01:00;;;;;;;50.87;25.70;;;;;;;;;;5031054;28;20206;-70
2021/01/03 09:03:25;;;;;;;52.17;25.70;;;;;;;;;;5037244;28;20552;-70
2021/01/03 09:05:51;;;;;;;48.47;24.67;;;;;;;;;;5031135;28;20206;-70
2021/01/03 09:08:33;;;;;;;56.07;26.37;;;;;;;;;;5030557;28;20639;-70
2021/01/03 09:11:02;;;;;;;57.13;25.27;;;;;;;;;;5036288;28;20216;-70
2021/01/03 09:13:27;;;;;;;57.07;26.60;;;;;;;;;;5034796;28;20261;-71
2021/01/03 09:15:59;;;;;;;49.73;25.53;;;;;;;;;;5030390;28;20348;-70
2021/01/03 09:18:27;;;;;;;47.23;23.67;;;;;;;;;;5037683;28;20212;-70
2021/01/03 09:21:00;;;;;;;53.97;25.83;;;;;;;;;;5030592;28;20210;-70
2021/01/03 09:23:26;;;;;;;47.40;24.87;;;;;;;;;;5017998;28;20178;-70
2021/01/03 09:25:57;;;;;;;50.73;24.60;;;;;;;;;;5026443;28;20746;-71
2021/01/03 09:28:25;;;;;;;51.60;26.20;;;;;;;;;;5026645;28;20703;-70
2021/01/03 09:30:51;;;;;;;46.47;25.07;;;;;;;;;;5027622;28;20265;-70
2021/01/03 09:33:18;;;;;;;46.17;24.33;;;;;;;;;;5029607;28;20796;-71
2021/01/03 09:35:50;;;;;;;45.10;22.00;;;;;;;;;;5026398;28;20213;-71
2021/01/03 09:38:21;;;;;;;45.30;22.97;;;;;;;;;;5027749;28;20194;-70
2021/01/03 09:40:55;;;;;;;37.57;21.83;;;;;;;;;;5027783;28;20210;-70
2021/01/03 09:43:32;;;;;;;40.67;21.13;;;;;;;;;;5029346;28;20237;-71
2021/01/03 09:46:08;;;;;;;35.97;19.80;;;;;;;;;;5034572;28;20309;-71
2021/01/03 09:48:38;;;;;;;42.70;22.20;;;;;;;;;;5022916;28;20185;-71
2021/01/03 09:51:09;;;;;;;39.07;20.07;;;;;;;;;;5032859;28;20191;-70
2021/01/03 09:53:37;;;;;;;36.23;21.63;;;;;;;;;;5040606;28;20190;-70
2021/01/03 09:56:17;;;;;;;39.33;20.73;;;;;;;;;;5030570;28;20206;-70
2021/01/03 09:58:48;;;;;;;34.87;19.23;;;;;;;;;;5034919;28;20177;-70
2021/01/03 10:01:43;;;;;;;45.57;20.93;;;;;;;;;;5030218;28;20221;-70
2021/01/03 10:04:34;;;;;;;38.70;21.07;;;;;;;;;;5002812;28;20186;-70
2021/01/03 10:07:10;;;;;;;36.93;19.80;;;;;;;;;;5023951;28;20301;-70
2021/01/03 10:09:35;;;;;;;39.27;18.80;;;;;;;;;;5019579;28;20190;-70
2021/01/03 10:12:23;;;;;;;33.73;19.87;;;;;;;;;;5009367;28;20709;-71
2021/01/03 10:15:06;;;;;;;32.13;19.40;;;;;;;;;;5002899;28;20296;-71
2021/01/03 10:17:31;;;;;;;30.67;17.73;;;;;;;;;;5007121;28;20334;-70
2021/01/03 10:19:57;;;;;;;30.93;18.20;;;;;;;;;;5008600;28;20292;-70
2021/01/03 10:22:25;;;;;;;32.20;18.07;;;;;;;;;;5032503;28;20174;-70
2021/01/03 10:24:57;;;;;;;25.23;16.53;;;;;;;;;;5013903;28;20186;-70
2021/01/03 10:27:22;;;;;;;28.37;16.30;;;;;;;;;;5028877;28;20281;-70
2021/01/03 10:29:47;;;;;;;29.03;14.70;;;;;;;;;;5034239;28;20722;-70
2021/01/03 10:32:12;;;;;;;33.80;16.43;;;;;;;;;;5031423;28;20248;-70
2021/01/03 10:34:37;;;;;;;29.77;14.53;;;;;;;;;;5029835;28;20206;-70
2021/01/03 10:37:03;;;;;;;29.83;17.23;;;;;;;;;;5027572;28;20198;-70
2021/01/03 10:39:32;;;;;;;26.57;15.27;;;;;;;;;;5021586;28;20208;-70
2021/01/03 10:41:57;;;;;;;25.23;14.73;;;;;;;;;;5021427;28;20187;-70
2021/01/03 10:44:22;;;;;;;25.77;14.73;;;;;;;;;;5025791;28;20302;-71
2021/01/03 10:46:48;;;;;;;24.67;14.73;;;;;;;;;;5023949;28;20206;-70
2021/01/03 10:49:14;;;;;;;25.13;14.27;;;;;;;;;;5025766;28;20181;-70
2021/01/03 10:51:40;;;;;;;23.93;13.87;;;;;;;;;;5027979;28;20550;-70
2021/01/03 10:54:06;;;;;;;22.07;12.67;;;;;;;;;;5027472;28;20351;-70
2021/01/03 10:56:32;;;;;;;19.63;12.33;;;;;;;;;;5026890;28;20197;-70
2021/01/03 10:58:57;;;;;;;20.17;12.77;;;;;;;;;;5012230;28;20175;-70
2021/01/03 11:01:22;;;;;;;22.23;13.00;;;;;;;;;;5026581;28;20242;-70
2021/01/03 11:03:48;;;;;;;19.57;12.77;;;;;;;;;;5029434;28;20182;-70
2021/01/03 11:06:13;;;;;;;19.10;11.17;;;;;;;;;;5035164;28;20272;-70
2021/01/03 11:08:39;;;;;;;17.07;11.47;;;;;;;;;;5030896;28;20727;-70
2021/01/03 11:11:05;;;;;;;18.13;11.23;;;;;;;;;;5028561;28;20194;-70
2021/01/03 11:13:30;;;;;;;18.90;11.03;;;;;;;;;;5032226;28;20204;-70
2021/01/03 11:15:56;;;;;;;16.03;10.37;;;;;;;;;;5031787;28;20300;-70
2021/01/03 11:18:21;;;;;;;15.23;9.83;;;;;;;;;;5032863;28;20647;-70
2021/01/03 11:20:46;;;;;;;19.43;10.17;;;;;;;;;;5029298;28;20213;-70
2021/01/03 11:23:11;;;;;;;15.03;8.97;;;;;;;;;;5030137;28;20186;-70
2021/01/03 11:25:37;;;;;;;11.70;7.53;;;;;;;;;;5031642;28;20193;-70
2021/01/03 11:28:02;;;;;;;12.67;8.73;;;;;;;;;;5035676;28;20655;-70
2021/01/03 11:30:27;;;;;;;12.33;8.77;;;;;;;;;;5030985;28;20179;-70
2021/01/03 11:32:53;;;;;;;15.13;8.83;;;;;;;;;;5031708;28;20174;-70
2021/01/03 11:35:18;;;;;;;14.77;9.03;;;;;;;;;;5030951;28;20585;-70
2021/01/03 11:37:43;;;;;;;13.33;7.77;;;;;;;;;;5034556;28;20257;-70
2021/01/03 11:40:09;;;;;;;14.77;8.77;;;;;;;;;;5034543;28;20206;-71
2021/01/03 11:42:36;;;;;;;11.70;8.03;;;;;;;;;;5031735;28;20182;-70
2021/01/03 11:45:03;;;;;;;12.57;8.93;;;;;;;;;;5029483;28;20183;-70
2021/01/03 11:47:29;;;;;;;14.50;9.20;;;;;;;;;;5035241;28;20237;-70
2021/01/03 11:49:55;;;;;;;13.90;9.60;;;;;;;;;;5029739;28;20228;-70
2021/01/03 11:52:22;;;;;;;14.87;8.03;;;;;;;;;;5019801;28;20662;-70
2021/01/03 11:54:48;;;;;;;14.40;8.70;;;;;;;;;;5023384;28;20266;-70
2021/01/03 11:57:14;;;;;;;17.20;9.17;;;;;;;;;;5031413;28;20285;-70
2021/01/03 11:59:39;;;;;;;14.27;9.40;;;;;;;;;;5030925;28;20593;-70
2021/01/03 12:02:08;;;;;;;15.45;9.43;;;;;;;;;;5017916;28;20244;-70
2021/01/03 12:04:34;;;;;;;15.57;9.53;;;;;;;;;;5026816;28;20261;-70
2021/01/03 12:07:01;;;;;;;14.47;9.07;;;;;;;;;;5016525;28;20654;-71
2021/01/03 12:09:30;;;;;;;18.33;11.00;;;;;;;;;;5030026;28;20178;-70
2021/01/03 12:12:02;;;;;;;18.50;11.10;;;;;;;;;;5028226;28;20189;-69
2021/01/03 12:14:28;;;;;;;15.20;9.90;;;;;;;;;;5030335;28;20178;-70
2021/01/03 12:16:57;;;;;;;18.17;10.43;;;;;;;;;;5023312;28;20576;-70
2021/01/03 12:19:23;;;;;;;18.50;10.60;;;;;;;;;;5025638;28;20197;-70
2021/01/03 12:21:49;;;;;;;16.00;9.77;;;;;;;;;;5029630;28;20182;-70
2021/01/03 12:24:14;;;;;;;16.33;10.03;;;;;;;;;;5038923;28;20205;-70
2021/01/03 12:26:42;;;;;;;18.70;10.83;;;;;;;;;;5028895;28;20232;-70
2021/01/03 12:29:11;;;;;;;15.50;10.13;;;;;;;;;;5029725;28;20210;-70
2021/01/03 12:31:39;;;;;;;15.90;10.63;;;;;;;;;;5029657;28;20185;-69
2021/01/03 12:34:04;;;;;;;14.77;9.27;;;;;;;;;;5031805;28;20681;-70
2021/01/03 12:36:30;;;;;;;17.07;9.80;;;;;;;;;;5028618;28;20194;-70
2021/01/03 12:38:55;;;;;;;14.63;10.20;;;;;;;;;;5031037;28;20274;-70
2021/01/03 12:41:21;;;;;;;16.37;10.20;;;;;;;;;;5028278;28;20202;-70
2021/01/03 12:43:47;;;;;;;17.37;10.87;;;;;;;;;;5018466;28;20194;-70
2021/01/03 12:46:12;;;;;;;17.57;9.93;;;;;;;;;;5032351;28;20687;-70
2021/01/03 12:48:38;;;;;;;17.63;10.87;;;;;;;;;;5031106;28;20170;-70
2021/01/03 12:51:03;;;;;;;18.52;9.73;;;;;;;;;;5029014;28;20312;-70
2021/01/03 12:53:28;;;;;;;16.17;11.03;;;;;;;;;;5016748;28;20189;-70
2021/01/03 12:55:53;;;;;;;16.80;10.13;;;;;;;;;;5020224;28;20217;-70
2021/01/03 12:58:18;;;;;;;14.63;9.53;;;;;;;;;;5029988;28;20562;-70
2021/01/03 13:00:43;;;;;;;15.33;9.50;;;;;;;;;;5028584;28;20257;-70
2021/01/03 13:03:09;;;;;;;16.23;9.87;;;;;;;;;;5028657;28;20273;-70
2021/01/03 13:05:34;;;;;;;15.40;9.50;;;;;;;;;;5033113;28;20325;-70
2021/01/03 13:08:00;;;;;;;17.67;10.30;;;;;;;;;;5029871;28;20174;-70
2021/01/03 13:10:25;;;;;;;14.53;9.37;;;;;;;;;;5014405;28;20227;-70
2021/01/03 13:12:50;;;;;;;14.40;9.50;;;;;;;;;;5029501;28;20562;-70
2021/01/03 13:15:15;;;;;;;16.53;8.97;;;;;;;;;;5027456;28;20191;-69
2021/01/03 13:17:40;;;;;;;17.83;10.13;;;;;;;;;;5029350;28;20218;-69
2021/01/03 13:20:06;;;;;;;16.20;10.07;;;;;;;;;;5030747;28;20229;-69
2021/01/03 13:22:31;;;;;;;17.77;11.00;;;;;;;;;;5031839;28;20336;-71
2021/01/03 13:24:57;;;;;;;15.07;9.60;;;;;;;;;;5012274;28;20198;-69
2021/01/03 13:27:22;;;;;;;14.30;9.00;;;;;;;;;;5027373;28;20248;-70
2021/01/03 13:29:47;;;;;;;16.10;10.50;;;;;;;;;;5028627;28;20208;-69
2021/01/03 13:32:12;;;;;;;15.57;9.80;;;;;;;;;;5027919;28;20273;-72
2021/01/03 13:34:37;;;;;;;15.90;9.90;;;;;;;;;;5028774;28;20174;-71
2021/01/03 13:37:03;;;;;;;16.80;9.87;;;;;;;;;;5025649;28;20289;-71
2021/01/03 13:39:28;;;;;;;15.23;10.03;;;;;;;;;;5028013;28;20740;-69
2021/01/03 13:41:53;;;;;;;16.60;10.47;;;;;;;;;;5031218;28;20642;-71
2021/01/03 13:44:18;;;;;;;15.23;9.53;;;;;;;;;;5029404;28;20186;-70
2021/01/03 13:46:44;;;;;;;17.03;10.47;;;;;;;;;;5016591;28;20609;-69
2021/01/03 13:49:09;;;;;;;15.90;10.93;;;;;;;;;;5028472;28;20596;-70
2021/01/03 13:51:35;;;;;;;15.87;9.97;;;;;;;;;;5026460;28;20644;-69
2021/01/03 13:54:00;;;;;;;18.00;10.57;;;;;;;;;;5030213;28;20186;-69
2021/01/03 13:56:30;;;;;;;19.30;10.77;;;;;;;;;;5019058;28;20237;-69
2021/01/03 13:58:55;;;;;;;19.03;11.10;;;;;;;;;;5028775;28;20182;-69
2021/01/03 14:01:25;;;;;;;18.37;11.80;;;;;;;;;;5027480;28;20328;-69
2021/01/03 14:03:50;;;;;;;19.33;11.53;;;;;;;;;;5031395;28;20193;-69
2021/01/03 14:06:15;;;;;;;19.53;11.80;;;;;;;;;;5027567;28;20199;-69
2021/01/03 14:08:41;;;;;;;19.23;12.60;;;;;;;;;;5034178;28;20520;-69
2021/01/03 14:11:06;;;;;;;20.10;12.02;;;;;;;;;;5031411;28;20667;-69
2021/01/03 14:13:31;;;;;;;21.77;12.73;;;;;;;;;;5027256;28;20182;-69
2021/01/03 14:15:56;;;;;;;20.37;12.10;;;;;;;;;;5027714;28;20209;-69
2021/01/03 14:18:21;;;;;;;19.33;11.85;;;;;;;;;;5028106;28;20629;-69
2021/01/03 14:20:46;;;;;;;22.07;12.50;;;;;;;;;;5028193;28;20198;-69
2021/01/03 14:23:12;;;;;;;22.97;12.40;;;;;;;;;;5028512;28;20656;-69